Time;durP1;ratioP1;P1;durP2;ratioP2;P2;SDS_P1;SDS_P2;PMS_P1;PMS_P2;Temp;Humidity;BMP_temperature;BMP_pressure;BME280_temperature;BME280_humidity;BME280_pressure;Samples;Min_cycle;Max_cycle;Signal;HPM_P1;HPM_P2
2022/12/28 00:01:28;;;;;;;6.43;2.20;;;1.00;99.90;;;;;;5028700;28;20218;-74
2022/12/28 00:03:54;;;;;;;2.57;1.67;;;1.00;99.90;;;;;;5018472;28;20509;-74
2022/12/28 00:06:23;;;;;;;4.97;2.20;;;1.20;99.90;;;;;;5031639;28;20570;-74
2022/12/28 00:08:52;;;;;;;8.37;2.33;;;1.20;99.90;;;;;;5031425;28;20491;-74
2022/12/28 00:11:20;;;;;;;4.20;2.40;;;1.30;99.90;;;;;;5023792;28;20460;-74
2022/12/28 00:13:45;;;;;;;8.23;2.97;;;1.40;99.90;;;;;;5024344;28;20508;-74
2022/12/28 00:16:17;;;;;;;3.63;2.43;;;1.40;99.90;;;;;;5011211;28;20436;-74
2022/12/28 00:18:42;;;;;;;4.30;1.60;;;1.50;99.90;;;;;;5023038;28;20272;-74
2022/12/28 00:21:08;;;;;;;3.73;1.97;;;1.50;99.90;;;;;;5028322;28;20507;-74
2022/12/28 00:23:34;;;;;;;4.73;2.20;;;1.50;99.90;;;;;;5017641;28;20599;-74
2022/12/28 00:26:12;;;;;;;14.83;2.60;;;1.50;99.90;;;;;;5031211;28;20651;-74
2022/12/28 00:28:39;;;;;;;5.77;2.43;;;1.50;99.90;;;;;;5031052;28;20705;-74
2022/12/28 00:31:05;;;;;;;5.63;2.37;;;1.50;99.90;;;;;;5014178;28;20458;-74
2022/12/28 00:33:31;;;;;;;4.90;2.30;;;1.50;99.90;;;;;;5025278;28;20480;-74
2022/12/28 00:35:59;;;;;;;3.60;2.00;;;1.40;99.90;;;;;;5031228;28;20425;-74
2022/12/28 00:38:25;;;;;;;5.17;2.03;;;1.50;99.90;;;;;;5014254;28;20425;-74
2022/12/28 00:40:51;;;;;;;4.13;2.00;;;1.40;99.90;;;;;;5011917;28;20899;-74
2022/12/28 00:43:16;;;;;;;4.50;2.03;;;1.40;99.90;;;;;;5028432;28;20460;-74
2022/12/28 00:45:46;;;;;;;7.43;2.50;;;1.30;99.90;;;;;;5020340;28;20183;-74
2022/12/28 00:48:12;;;;;;;5.70;2.07;;;1.20;99.90;;;;;;5029216;28;20257;-74
2022/12/28 00:50:38;;;;;;;3.20;2.13;;;1.20;99.90;;;;;;5030774;28;20470;-74
2022/12/28 00:53:04;;;;;;;6.63;2.27;;;1.20;99.90;;;;;;5017430;28;20425;-74
2022/12/28 00:55:29;;;;;;;3.80;2.20;;;1.30;99.90;;;;;;5021938;28;20244;-74
2022/12/28 00:57:58;;;;;;;4.80;1.73;;;1.30;99.90;;;;;;5030912;28;20182;-74
2022/12/28 01:00:24;;;;;;;3.63;1.60;;;1.30;99.90;;;;;;5029822;28;20206;-74
2022/12/28 01:02:49;;;;;;;3.27;1.50;;;1.30;99.90;;;;;;5016299;28;20429;-74
2022/12/28 01:05:15;;;;;;;3.40;1.73;;;1.40;99.90;;;;;;5030825;28;20187;-74
2022/12/28 01:07:40;;;;;;;4.37;1.70;;;1.40;99.90;;;;;;5030810;28;20210;-74
2022/12/28 01:10:07;;;;;;;3.70;1.67;;;1.50;99.90;;;;;;5030937;28;20244;-74
2022/12/28 01:12:32;;;;;;;4.53;1.77;;;1.50;99.90;;;;;;5030369;28;20183;-74
2022/12/28 01:14:58;;;;;;;3.17;1.73;;;1.60;99.90;;;;;;5030817;28;20428;-74
2022/12/28 01:17:23;;;;;;;4.00;1.33;;;1.70;99.90;;;;;;5030474;28;20186;-74
2022/12/28 01:19:49;;;;;;;4.83;1.47;;;1.70;99.90;;;;;;5030896;28;20266;-74
2022/12/28 01:22:15;;;;;;;3.07;1.50;;;1.80;99.90;;;;;;5030307;28;20214;-74
2022/12/28 01:24:40;;;;;;;2.80;1.00;;;1.80;99.90;;;;;;5030897;28;20658;-74
2022/12/28 01:27:06;;;;;;;4.63;1.57;;;1.80;99.90;;;;;;5031034;28;20178;-74
2022/12/28 01:29:32;;;;;;;5.33;1.73;;;1.80;99.90;;;;;;5030581;28;20628;-74
2022/12/28 01:31:58;;;;;;;4.50;1.80;;;1.80;99.90;;;;;;5016290;28;20326;-74
2022/12/28 01:34:23;;;;;;;4.00;1.27;;;1.90;99.90;;;;;;5011127;28;20516;-74
2022/12/28 01:36:49;;;;;;;2.90;1.57;;;1.80;99.90;;;;;;5026805;28;20194;-74
2022/12/28 01:39:15;;;;;;;3.20;1.20;;;1.80;99.90;;;;;;5025519;28;20190;-74
2022/12/28 01:41:41;;;;;;;3.77;1.57;;;1.90;99.90;;;;;;5020553;28;20204;-74
2022/12/28 01:44:06;;;;;;;2.70;1.60;;;1.90;99.90;;;;;;5034336;28;20257;-74
2022/12/28 01:47:04;;;;;;;2.70;1.67;;;1.90;99.90;;;;;;5033551;28;20529;-74
2022/12/28 01:49:43;;;;;;;2.27;1.23;;;1.90;99.90;;;;;;5034158;28;20464;-74
2022/12/28 01:52:09;;;;;;;1.80;1.20;;;2.00;99.90;;;;;;5032485;28;20547;-74
2022/12/28 01:54:47;;;;;;;2.70;1.33;;;2.00;99.90;;;;;;5014244;28;20541;-74
2022/12/28 01:57:14;;;;;;;2.63;1.23;;;2.10;99.90;;;;;;5025685;28;20190;-74
2022/12/28 01:59:43;;;;;;;7.03;1.53;;;2.10;99.90;;;;;;5032406;28;20792;-74
2022/12/28 02:02:12;;;;;;;4.13;1.80;;;2.10;99.90;;;;;;5029336;28;20465;-74
2022/12/28 02:04:38;;;;;;;2.50;1.40;;;2.10;99.90;;;;;;5033866;28;20945;-74
2022/12/28 02:07:03;;;;;;;1.40;1.00;;;2.10;99.90;;;;;;5021673;28;20422;-73
2022/12/28 02:09:36;;;;;;;5.00;1.80;;;2.20;99.90;;;;;;5028648;28;20171;-74
2022/12/28 02:12:02;;;;;;;2.70;1.30;;;2.20;99.90;;;;;;5020353;28;20325;-74
2022/12/28 02:14:28;;;;;;;2.53;1.00;;;2.30;99.90;;;;;;5007579;28;20963;-74
2022/12/28 02:16:54;;;;;;;6.07;1.23;;;2.30;99.90;;;;;;5009805;28;20317;-74
2022/12/28 02:19:32;;;;;;;2.07;1.17;;;2.40;99.90;;;;;;5027187;28;20445;-74
2022/12/28 02:22:30;;;;;;;2.70;1.47;;;2.40;99.90;;;;;;5015174;28;20671;-74
2022/12/28 02:25:28;;;;;;;5.57;1.23;;;2.40;99.90;;;;;;5033574;28;20977;-74
2022/12/28 02:28:14;;;;;;;2.10;1.40;;;2.50;99.90;;;;;;4980454;28;20744;-74
2022/12/28 02:30:48;;;;;;;2.80;1.17;;;2.50;99.90;;;;;;5027264;28;20406;-74
2022/12/28 02:33:13;;;;;;;2.07;1.10;;;2.50;99.90;;;;;;5013815;28;20494;-74
2022/12/28 02:35:39;;;;;;;2.03;1.23;;;2.60;99.90;;;;;;5033736;28;20508;-74
2022/12/28 02:38:40;;;;;;;4.10;1.27;;;2.60;99.90;;;;;;5033400;28;20194;-74
2022/12/28 02:41:11;;;;;;;2.37;1.27;;;2.60;99.90;;;;;;5021447;28;20213;-74
2022/12/28 02:43:37;;;;;;;1.70;0.77;;;2.70;99.90;;;;;;5032480;28;20580;-73
2022/12/28 02:52:06;;;;;;;9.13;1.23;;;2.70;99.90;;;;;;5031628;28;20474;-73
2022/12/28 02:57:39;;;;;;;2.23;1.17;;;2.70;99.90;;;;;;5019955;28;20929;-73
2022/12/28 03:00:23;;;;;;;5.43;1.57;;;2.70;99.90;;;;;;5032123;28;20746;-73
2022/12/28 03:03:07;;;;;;;4.70;1.33;;;2.70;99.90;;;;;;5006317;28;20425;-73
2022/12/28 03:08:49;;;;;;;2.53;1.20;;;2.80;99.90;;;;;;5033208;28;20399;-73
2022/12/28 03:11:25;;;;;;;4.50;1.33;;;2.80;99.90;;;;;;5000540;28;20483;-73
2022/12/28 03:14:05;;;;;;;1.83;1.23;;;2.80;99.90;;;;;;5025466;28;20425;-73
2022/12/28 03:33:20;;;;;;;2.30;1.30;;;3.00;99.90;;;;;;5015005;28;20771;-73
2022/12/28 03:35:58;;;;;;;1.93;0.87;;;3.00;99.90;;;;;;5024748;28;20418;-73
2022/12/28 03:38:30;;;;;;;1.70;0.93;;;3.00;99.90;;;;;;5026868;28;20472;-73
2022/12/28 03:41:08;;;;;;;4.90;1.17;;;3.00;99.90;;;;;;5013604;28;20458;-73
2022/12/28 03:43:42;;;;;;;6.00;1.13;;;3.00;99.90;;;;;;5012991;28;20418;-73
2022/12/28 03:46:07;;;;;;;7.17;1.33;;;3.10;99.90;;;;;;5013430;28;20768;-73
2022/12/28 03:48:36;;;;;;;1.50;0.90;;;3.10;99.90;;;;;;5020138;28;20417;-73
2022/12/28 03:51:02;;;;;;;1.20;0.70;;;3.10;99.90;;;;;;5018837;28;20211;-73
2022/12/28 03:53:37;;;;;;;2.33;1.23;;;3.10;99.90;;;;;;5018675;28;20480;-73
2022/12/28 03:56:10;;;;;;;1.50;0.70;;;3.10;99.90;;;;;;5015278;28;20437;-73
2022/12/28 03:58:35;;;;;;;2.60;1.07;;;3.10;99.90;;;;;;5031587;28;20504;-73
2022/12/28 04:01:01;;;;;;;2.43;0.90;;;3.10;99.90;;;;;;5026135;28;20560;-73
2022/12/28 04:03:27;;;;;;;2.53;1.10;;;3.00;99.90;;;;;;5012337;28;20175;-73
2022/12/28 04:05:54;;;;;;;2.00;1.00;;;3.00;99.90;;;;;;5012881;28;20179;-73
2022/12/28 04:08:19;;;;;;;2.00;1.10;;;3.00;99.90;;;;;;5022725;28;20186;-73
2022/12/28 04:10:45;;;;;;;3.60;1.00;;;3.10;99.90;;;;;;5032584;28;20436;-73
2022/12/28 04:13:11;;;;;;;1.60;0.83;;;3.10;99.90;;;;;;5022420;28;20185;-73
2022/12/28 04:15:36;;;;;;;2.40;1.33;;;3.10;99.90;;;;;;5012549;28;20190;-73
2022/12/28 04:18:02;;;;;;;1.50;0.80;;;3.10;99.90;;;;;;5022046;28;20631;-73
2022/12/28 04:20:28;;;;;;;3.23;1.30;;;3.10;99.90;;;;;;5029530;28;20222;-73
2022/12/28 04:22:53;;;;;;;3.50;1.23;;;3.10;99.90;;;;;;5012364;28;20636;-73
2022/12/28 04:25:19;;;;;;;2.27;1.00;;;3.10;99.90;;;;;;5015403;28;20221;-73
2022/12/28 04:27:44;;;;;;;2.50;1.07;;;3.10;99.90;;;;;;5032276;28;20191;-73
2022/12/28 04:30:10;;;;;;;2.20;0.90;;;3.10;99.90;;;;;;5032199;28;20203;-73
2022/12/28 04:32:36;;;;;;;2.30;0.97;;;3.10;99.90;;;;;;5012790;28;20266;-73
2022/12/28 04:35:01;;;;;;;2.77;1.40;;;3.10;99.90;;;;;;5015149;28;20183;-73
2022/12/28 04:37:27;;;;;;;2.57;1.10;;;3.10;99.90;;;;;;5032307;28;20178;-73
2022/12/28 04:39:52;;;;;;;1.50;1.00;;;3.20;99.90;;;;;;5016409;28;20187;-74
2022/12/28 04:42:18;;;;;;;1.40;0.87;;;3.10;99.90;;;;;;5012007;28;20191;-74
2022/12/28 04:44:44;;;;;;;1.27;0.73;;;3.20;99.90;;;;;;5014442;28;20190;-74
2022/12/28 04:47:09;;;;;;;2.20;1.10;;;3.20;99.90;;;;;;5032090;28;20252;-74
2022/12/28 04:49:35;;;;;;;4.50;1.37;;;3.10;99.90;;;;;;5016359;28;20226;-73
2022/12/28 04:52:00;;;;;;;5.73;0.93;;;3.10;99.90;;;;;;5014093;28;20182;-75
2022/12/28 04:54:26;;;;;;;1.93;1.20;;;3.10;99.90;;;;;;5031837;28;20206;-74
2022/12/28 04:56:51;;;;;;;1.73;0.70;;;3.10;99.90;;;;;;5031849;28;20616;-74
2022/12/28 04:59:17;;;;;;;3.50;1.30;;;3.10;99.90;;;;;;5028009;28;20190;-74
2022/12/28 05:01:43;;;;;;;1.50;0.90;;;3.10;99.90;;;;;;5011938;28;20195;-74
2022/12/28 05:04:09;;;;;;;2.00;0.93;;;3.10;99.90;;;;;;5024740;28;20179;-75
2022/12/28 05:06:34;;;;;;;6.90;1.50;;;3.10;99.90;;;;;;5021218;28;20174;-75
2022/12/28 05:09:00;;;;;;;1.93;0.73;;;3.10;99.90;;;;;;5016145;28;20418;-74
2022/12/28 05:11:27;;;;;;;1.20;0.70;;;3.20;99.90;;;;;;5020823;28;20190;-73
2022/12/28 05:13:53;;;;;;;4.60;1.30;;;3.20;99.90;;;;;;5030929;28;20808;-74
2022/12/28 05:16:21;;;;;;;1.43;0.57;;;3.00;99.90;;;;;;5015768;28;20442;-74
2022/12/28 05:18:47;;;;;;;1.40;0.90;;;3.20;99.90;;;;;;5018926;28;20186;-74
2022/12/28 05:21:21;;;;;;;1.87;0.83;;;3.20;99.90;;;;;;5025628;28;20457;-74
2022/12/28 05:23:48;;;;;;;5.50;1.27;;;3.30;99.90;;;;;;5020797;28;20189;-74
2022/12/28 05:26:16;;;;;;;1.83;0.80;;;3.30;99.90;;;;;;5035473;28;20425;-74
2022/12/28 05:28:42;;;;;;;2.60;1.13;;;3.30;99.90;;;;;;5017061;28;20421;-74
2022/12/28 05:31:12;;;;;;;1.80;1.00;;;3.30;99.90;;;;;;5008503;28;20919;-74
2022/12/28 05:33:38;;;;;;;1.53;0.90;;;3.40;99.90;;;;;;5025967;28;20432;-74
2022/12/28 05:36:06;;;;;;;4.57;1.10;;;3.40;99.90;;;;;;5027778;28;20416;-74
2022/12/28 05:38:31;;;;;;;3.30;1.47;;;3.40;99.90;;;;;;5029339;28;20499;-74
2022/12/28 05:41:06;;;;;;;5.97;1.20;;;3.40;99.90;;;;;;5027830;28;21032;-74
2022/12/28 05:43:32;;;;;;;1.40;1.03;;;3.40;99.90;;;;;;5027890;28;20175;-73
2022/12/28 05:46:06;;;;;;;6.13;1.00;;;3.50;99.90;;;;;;5028185;28;20917;-73
2022/12/28 05:48:37;;;;;;;1.83;1.00;;;3.60;99.90;;;;;;5023040;28;20682;-74
2022/12/28 05:51:05;;;;;;;2.27;1.00;;;3.60;99.90;;;;;;5032709;28;20420;-74
2022/12/28 05:53:32;;;;;;;1.40;0.70;;;3.60;99.90;;;;;;5014700;28;20418;-74
2022/12/28 05:56:11;;;;;;;2.60;1.20;;;3.60;99.90;;;;;;5015071;28;21155;-74
2022/12/28 05:58:37;;;;;;;1.53;0.87;;;3.70;99.90;;;;;;5023727;28;20502;-74
2022/12/28 06:01:03;;;;;;;3.90;1.63;;;3.70;99.90;;;;;;5018150;28;20494;-74
2022/12/28 06:03:29;;;;;;;3.23;1.20;;;3.70;99.90;;;;;;5034371;28;20424;-74
2022/12/28 06:05:55;;;;;;;2.17;1.00;;;3.70;99.90;;;;;;5018171;28;20418;-74
2022/12/28 06:08:20;;;;;;;2.40;0.87;;;3.80;99.90;;;;;;5015207;28;20183;-74
2022/12/28 06:10:46;;;;;;;1.43;0.67;;;3.70;99.90;;;;;;5018056;28;20193;-74
2022/12/28 06:13:11;;;;;;;3.10;1.30;;;3.70;99.90;;;;;;5024422;28;20194;-74
2022/12/28 06:15:37;;;;;;;9.40;0.90;;;3.70;99.90;;;;;;5014466;28;20680;-74
2022/12/28 06:18:03;;;;;;;2.70;1.00;;;3.60;99.90;;;;;;5023908;28;20183;-74
2022/12/28 06:20:28;;;;;;;1.87;1.03;;;3.60;99.90;;;;;;5018079;28;20198;-74
2022/12/28 06:22:54;;;;;;;5.80;1.37;;;3.60;99.90;;;;;;5014477;28;20570;-74
2022/12/28 06:25:19;;;;;;;2.23;0.90;;;3.60;99.90;;;;;;5014387;28;20183;-74
2022/12/28 06:27:45;;;;;;;6.50;1.30;;;3.60;99.90;;;;;;5014360;28;20179;-74
2022/12/28 06:30:11;;;;;;;1.50;0.80;;;3.60;99.90;;;;;;5016952;28;20182;-74
2022/12/28 06:32:37;;;;;;;2.63;1.10;;;3.60;99.90;;;;;;5014659;28;20656;-74
2022/12/28 06:35:03;;;;;;;2.03;1.23;;;3.60;99.90;;;;;;5014307;28;20456;-73
2022/12/28 06:37:28;;;;;;;3.93;1.13;;;3.60;99.90;;;;;;5014576;28;20202;-74
2022/12/28 06:39:54;;;;;;;2.23;1.07;;;3.60;99.90;;;;;;5014466;28;20234;-74
2022/12/28 06:42:19;;;;;;;3.63;1.87;;;3.60;99.90;;;;;;5022775;28;20293;-74
2022/12/28 06:44:45;;;;;;;1.40;0.60;;;3.50;99.90;;;;;;5031929;28;20186;-74
2022/12/28 06:47:11;;;;;;;2.13;0.97;;;3.50;99.90;;;;;;5023085;28;20186;-74
2022/12/28 06:49:36;;;;;;;3.33;1.70;;;3.50;99.90;;;;;;5033829;28;20183;-74
2022/12/28 06:52:02;;;;;;;3.10;1.20;;;3.50;99.90;;;;;;5031339;28;20217;-74
2022/12/28 06:54:27;;;;;;;2.03;0.90;;;3.50;99.90;;;;;;5020704;28;20195;-74
2022/12/28 06:56:53;;;;;;;2.57;0.80;;;3.50;99.90;;;;;;5024509;28;20207;-74
2022/12/28 06:59:18;;;;;;;3.17;1.57;;;3.40;99.90;;;;;;5012594;28;20183;-74
2022/12/28 07:01:44;;;;;;;3.00;0.90;;;3.40;99.90;;;;;;5022889;28;20722;-74
2022/12/28 07:04:10;;;;;;;2.03;1.00;;;3.40;99.90;;;;;;5020250;28;20206;-74
2022/12/28 07:06:40;;;;;;;3.93;1.73;;;3.40;99.90;;;;;;5024072;28;20425;-74
2022/12/28 07:09:08;;;;;;;5.40;1.83;;;3.40;99.90;;;;;;5017019;28;20415;-74
2022/12/28 07:11:34;;;;;;;2.40;1.53;;;3.40;99.90;;;;;;5033193;28;20463;-74
2022/12/28 07:14:00;;;;;;;2.77;1.30;;;3.40;99.90;;;;;;5015729;28;20426;-75
2022/12/28 07:16:28;;;;;;;2.67;1.40;;;3.40;99.90;;;;;;5012987;28;20218;-75
2022/12/28 07:18:54;;;;;;;2.97;1.53;;;3.50;99.90;;;;;;5026417;28;20488;-75
2022/12/28 07:21:25;;;;;;;1.90;1.03;;;3.50;99.90;;;;;;5024111;28;20469;-74
2022/12/28 07:23:53;;;;;;;2.80;1.10;;;3.50;99.90;;;;;;5027245;28;20418;-74
2022/12/28 07:26:24;;;;;;;2.13;0.90;;;3.50;99.90;;;;;;5025185;28;20421;-74
2022/12/28 07:28:53;;;;;;;1.93;0.90;;;3.50;99.90;;;;;;5014050;28;20887;-74
2022/12/28 07:31:30;;;;;;;3.20;1.00;;;3.50;99.90;;;;;;5026352;28;20436;-75
2022/12/28 07:33:58;;;;;;;4.70;1.87;;;3.50;99.90;;;;;;5020749;28;20784;-74
2022/12/28 07:36:25;;;;;;;6.53;2.13;;;3.50;99.90;;;;;;5031587;28;20425;-74
2022/12/28 07:38:51;;;;;;;4.70;1.33;;;3.60;99.90;;;;;;5032437;28;20910;-75
2022/12/28 07:41:19;;;;;;;5.67;1.37;;;3.60;99.90;;;;;;5030573;28;20501;-74
2022/12/28 07:43:45;;;;;;;2.57;1.60;;;3.60;99.90;;;;;;5020842;28;21241;-75
2022/12/28 07:46:13;;;;;;;3.33;1.30;;;3.70;99.90;;;;;;5029938;28;20467;-75
2022/12/28 07:48:40;;;;;;;1.60;1.00;;;3.70;99.90;;;;;;5020963;28;20191;-75
2022/12/28 07:51:26;;;;;;;10.73;1.20;;;3.80;99.90;;;;;;5030808;28;20421;-75
2022/12/28 07:53:53;;;;;;;1.83;1.17;;;3.90;99.90;;;;;;5016751;28;20905;-74
2022/12/28 07:56:20;;;;;;;2.93;1.47;;;3.90;99.90;;;;;;5016469;28;20441;-74
2022/12/28 07:58:51;;;;;;;2.33;0.97;;;3.90;99.90;;;;;;5020235;28;20476;-73
2022/12/28 08:01:18;;;;;;;1.40;0.80;;;4.00;99.90;;;;;;5030448;28;20488;-75
2022/12/28 08:03:44;;;;;;;2.40;0.90;;;4.00;99.90;;;;;;5031498;28;20421;-75
2022/12/28 08:06:11;;;;;;;3.37;0.83;;;4.10;99.90;;;;;;5018647;28;20894;-75
2022/12/28 08:08:39;;;;;;;2.27;0.90;;;4.10;99.90;;;;;;5031679;28;20429;-71
2022/12/28 08:11:07;;;;;;;6.03;0.90;;;4.20;99.90;;;;;;5031406;28;20427;-71
2022/12/28 08:13:35;;;;;;;2.27;0.97;;;4.20;99.90;;;;;;5030487;28;20457;-70
2022/12/28 08:16:01;;;;;;;2.53;0.90;;;4.20;99.90;;;;;;5017380;28;20433;-75
2022/12/28 08:18:27;;;;;;;3.97;1.50;;;4.20;99.90;;;;;;5019580;28;20436;-75
2022/12/28 08:20:53;;;;;;;3.47;1.17;;;4.20;99.90;;;;;;5030630;28;20460;-75
2022/12/28 08:23:19;;;;;;;5.07;1.57;;;4.30;99.90;;;;;;5018944;28;20426;-74
2022/12/28 08:25:45;;;;;;;2.87;1.30;;;4.30;99.90;;;;;;5006884;28;20225;-75
2022/12/28 08:28:11;;;;;;;3.00;1.10;;;4.30;99.90;;;;;;5004442;28;20810;-76
2022/12/28 08:30:36;;;;;;;3.30;1.20;;;4.40;99.90;;;;;;5027013;28;20572;-75
2022/12/28 08:33:02;;;;;;;2.47;1.20;;;4.50;99.90;;;;;;5023320;28;20186;-77
2022/12/28 08:35:27;;;;;;;3.63;1.13;;;4.50;99.90;;;;;;5012925;28;20663;-75
2022/12/28 08:37:56;;;;;;;8.63;0.93;;;4.60;99.90;;;;;;5011562;28;20207;-75
2022/12/28 08:40:26;;;;;;;3.13;1.03;;;4.70;99.90;;;;;;5016754;28;20191;-76
2022/12/28 08:42:55;;;;;;;2.47;1.30;;;4.70;99.90;;;;;;5030719;28;20434;-76
2022/12/28 08:45:20;;;;;;;2.07;0.83;;;4.80;99.90;;;;;;5031062;28;20472;-76
2022/12/28 08:47:46;;;;;;;1.70;0.70;;;4.90;99.90;;;;;;5031736;28;20449;-76
2022/12/28 08:50:12;;;;;;;2.10;1.20;;;4.90;99.90;;;;;;5015416;28;20205;-76
2022/12/28 08:52:37;;;;;;;8.83;1.93;;;4.90;99.90;;;;;;5020466;28;20184;-76
2022/12/28 08:55:03;;;;;;;2.13;0.80;;;5.00;99.90;;;;;;5011391;28;20268;-75
2022/12/28 08:57:29;;;;;;;2.00;1.00;;;5.10;99.90;;;;;;5027191;28;20193;-76
2022/12/28 08:59:54;;;;;;;2.47;1.33;;;5.10;99.90;;;;;;5027226;28;20197;-76
2022/12/28 09:02:20;;;;;;;1.40;0.80;;;5.10;99.90;;;;;;5028206;28;20678;-75
2022/12/28 09:04:45;;;;;;;6.53;1.30;;;5.20;99.90;;;;;;5022475;28;20186;-75
2022/12/28 09:07:11;;;;;;;2.47;0.80;;;5.20;99.90;;;;;;5035069;28;20182;-76
2022/12/28 09:09:36;;;;;;;5.00;1.50;;;5.30;99.90;;;;;;5021807;28;20262;-75
2022/12/28 09:12:02;;;;;;;1.70;0.80;;;5.30;99.90;;;;;;5034557;28;20636;-75
2022/12/28 09:14:28;;;;;;;1.67;0.70;;;5.30;99.90;;;;;;5027964;28;20175;-76
2022/12/28 09:16:53;;;;;;;2.37;1.20;;;5.40;99.90;;;;;;5028362;28;20190;-76
2022/12/28 09:19:19;;;;;;;2.77;1.00;;;5.40;99.90;;;;;;5028168;28;20610;-76
2022/12/28 09:21:47;;;;;;;2.80;1.03;;;5.40;99.90;;;;;;5014599;28;20215;-75
2022/12/28 09:24:13;;;;;;;5.53;1.10;;;5.40;99.90;;;;;;5028869;28;20875;-75
2022/12/28 09:26:39;;;;;;;1.47;0.80;;;5.40;99.90;;;;;;5003177;28;20415;-75
2022/12/28 09:29:07;;;;;;;4.60;1.00;;;5.50;99.90;;;;;;5008368;28;20194;-75
2022/12/28 09:31:35;;;;;;;1.87;0.80;;;5.50;99.90;;;;;;5024056;28;20183;-75
2022/12/28 09:34:03;;;;;;;2.83;0.93;;;5.60;99.90;;;;;;5007983;28;20424;-75
2022/12/28 09:36:33;;;;;;;2.20;1.03;;;5.50;99.90;;;;;;5034208;28;20432;-75
2022/12/28 09:39:01;;;;;;;2.43;1.37;;;5.50;99.90;;;;;;5021907;28;20901;-76
2022/12/28 09:41:32;;;;;;;2.27;0.70;;;5.60;99.90;;;;;;5033925;28;20460;-75
2022/12/28 09:44:29;;;;;;;2.40;1.13;;;5.60;99.90;;;;;;5033959;28;20463;-76
2022/12/28 09:47:07;;;;;;;2.50;1.00;;;5.70;99.90;;;;;;5027605;28;21152;-76
2022/12/28 09:49:50;;;;;;;2.47;0.93;;;5.80;99.90;;;;;;5028392;28;20516;-75
2022/12/28 09:52:24;;;;;;;3.20;1.60;;;5.90;99.90;;;;;;5025135;28;20413;-75
2022/12/28 09:54:50;;;;;;;2.10;0.90;;;6.00;99.90;;;;;;5032205;28;20451;-75
2022/12/28 09:57:17;;;;;;;3.27;1.03;;;6.00;99.90;;;;;;5034126;28;20796;-76
2022/12/28 09:59:44;;;;;;;5.60;1.33;;;6.10;99.90;;;;;;5032453;28;20537;-76
2022/12/28 10:02:21;;;;;;;8.60;1.20;;;6.20;99.90;;;;;;5006850;28;20471;-75
2022/12/28 10:04:49;;;;;;;4.47;1.10;;;6.40;99.90;;;;;;5006953;28;20798;-76
2022/12/28 10:07:14;;;;;;;1.90;0.90;;;6.40;99.90;;;;;;5034006;28;20433;-76
2022/12/28 10:09:40;;;;;;;4.80;1.17;;;6.50;99.90;;;;;;5033598;28;20504;-76
2022/12/28 10:12:19;;;;;;;2.27;1.07;;;6.80;99.90;;;;;;5033590;28;20277;-76
2022/12/28 10:14:46;;;;;;;4.57;0.77;;;6.80;99.90;;;;;;5024950;28;20193;-76
2022/12/28 10:17:14;;;;;;;2.63;0.87;;;7.00;99.90;;;;;;5028342;28;20469;-76
2022/12/28 10:19:39;;;;;;;2.87;1.17;;;7.00;99.90;;;;;;5033468;28;20440;-76
2022/12/28 10:22:17;;;;;;;1.90;0.90;;;7.10;99.90;;;;;;5027494;28;20482;-76
2022/12/28 10:24:44;;;;;;;2.20;1.03;;;7.20;99.90;;;;;;5024015;28;20879;-76
2022/12/28 10:27:23;;;;;;;10.00;1.13;;;7.30;99.90;;;;;;5030479;28;20417;-76
2022/12/28 10:29:52;;;;;;;1.87;0.70;;;7.30;99.90;;;;;;5033421;28;20436;-76
2022/12/28 10:32:19;;;;;;;1.30;0.60;;;7.50;99.90;;;;;;5022750;28;20516;-75
2022/12/28 10:35:00;;;;;;;2.03;0.83;;;7.50;99.90;;;;;;5020669;28;20934;-76
2022/12/28 10:37:31;;;;;;;1.50;0.70;;;7.60;99.90;;;;;;5009698;28;20930;-76
2022/12/28 10:40:04;;;;;;;4.80;1.00;;;7.80;99.90;;;;;;5026424;28;20431;-76
2022/12/28 10:42:38;;;;;;;1.40;0.63;;;8.00;99.90;;;;;;5032617;28;20484;-76
2022/12/28 10:45:15;;;;;;;1.60;0.60;;;8.10;99.90;;;;;;5019689;28;20421;-76
2022/12/28 10:47:44;;;;;;;1.20;0.60;;;8.20;99.90;;;;;;5021273;28;20461;-76
2022/12/28 10:51:01;;;;;;;2.07;0.90;;;8.30;99.90;;;;;;5019603;28;20953;-76
2022/12/28 10:53:32;;;;;;;1.30;0.50;;;8.30;99.90;;;;;;4989240;28;20426;-76
2022/12/28 10:56:12;;;;;;;1.53;0.70;;;8.30;99.90;;;;;;5027558;28;20590;-76
2022/12/28 10:58:49;;;;;;;2.10;0.80;;;8.40;99.90;;;;;;5031932;28;20413;-76
2022/12/28 11:01:27;;;;;;;1.47;0.80;;;8.50;99.90;;;;;;5027639;28;20497;-76
2022/12/28 11:03:58;;;;;;;2.53;1.00;;;8.40;99.90;;;;;;5013262;28;20425;-76
2022/12/28 11:06:29;;;;;;;2.33;1.07;;;8.20;99.90;;;;;;4999919;28;20839;-76
2022/12/28 11:09:15;;;;;;;2.23;0.87;;;8.20;99.90;;;;;;5025841;28;20445;-76
2022/12/28 11:11:45;;;;;;;1.80;0.87;;;8.00;99.90;;;;;;5011455;28;20464;-75
2022/12/28 11:14:32;;;;;;;1.80;0.70;;;7.90;99.90;;;;;;5012628;28;20428;-75
2022/12/28 11:17:16;;;;;;;2.53;0.80;;;7.90;99.90;;;;;;5013496;28;20445;-76
2022/12/28 11:19:42;;;;;;;1.30;0.60;;;7.80;99.90;;;;;;5032780;28;20439;-76
2022/12/28 11:22:11;;;;;;;1.50;0.60;;;7.60;99.90;;;;;;5025495;28;20473;-75
2022/12/28 11:24:39;;;;;;;2.23;0.70;;;7.60;99.90;;;;;;5013066;28;20437;-76
2022/12/28 11:27:07;;;;;;;1.30;0.53;;;7.60;99.90;;;;;;5009113;28;20433;-76
2022/12/28 11:29:33;;;;;;;1.20;0.50;;;7.60;99.90;;;;;;5021619;28;20517;-75
2022/12/28 11:32:04;;;;;;;1.80;0.97;;;7.60;99.90;;;;;;5025701;28;20516;-74
2022/12/28 11:34:30;;;;;;;1.93;0.80;;;7.60;99.90;;;;;;5012865;28;20215;-76
2022/12/28 11:36:56;;;;;;;1.50;0.70;;;7.80;99.90;;;;;;5016688;28;20908;-76
2022/12/28 11:39:25;;;;;;;1.53;0.70;;;7.90;99.90;;;;;;5031027;28;20519;-78
2022/12/28 11:41:52;;;;;;;1.90;0.83;;;7.90;99.90;;;;;;5028724;28;20844;-77
2022/12/28 11:44:28;;;;;;;1.60;0.60;;;8.00;99.90;;;;;;5012976;28;20434;-78
2022/12/28 11:47:24;;;;;;;2.80;1.50;;;8.10;99.90;;;;;;5017219;28;20417;-77
2022/12/28 11:49:52;;;;;;;1.90;0.90;;;8.30;99.90;;;;;;5018301;28;20815;-77
2022/12/28 11:52:26;;;;;;;5.20;0.90;;;8.50;99.90;;;;;;5022003;28;20426;-78
2022/12/28 11:55:18;;;;;;;2.73;1.30;;;8.70;99.90;;;;;;5021176;28;20977;-77
2022/12/28 11:57:44;;;;;;;2.03;0.80;;;8.90;99.90;;;;;;5031459;28;20486;-78
2022/12/28 12:00:18;;;;;;;3.60;1.13;;;9.00;99.90;;;;;;5021136;28;20887;-77
2022/12/28 12:02:48;;;;;;;2.13;1.03;;;9.00;99.90;;;;;;5019664;28;20269;-78
2022/12/28 12:05:36;;;;;;;12.53;1.30;;;9.10;99.90;;;;;;5031421;28;20902;-77
2022/12/28 12:08:21;;;;;;;1.30;0.67;;;9.00;99.90;;;;;;5024147;28;20418;-77
2022/12/28 12:10:48;;;;;;;2.27;0.90;;;8.80;99.90;;;;;;5019321;28;20445;-77
2022/12/28 12:13:25;;;;;;;1.50;0.87;;;8.70;99.90;;;;;;5030527;28;20475;-77
2022/12/28 12:16:02;;;;;;;1.63;0.73;;;8.50;99.90;;;;;;5017210;28;20799;-77
2022/12/28 12:18:29;;;;;;;2.00;0.80;;;8.60;99.90;;;;;;5017779;28;20909;-77
2022/12/28 12:21:05;;;;;;;2.07;0.93;;;8.50;99.90;;;;;;5031067;28;20475;-77
2022/12/28 12:23:37;;;;;;;3.70;0.80;;;8.30;99.90;;;;;;5030923;28;20420;-77
2022/12/28 12:26:15;;;;;;;2.20;0.83;;;8.10;99.90;;;;;;5022890;28;20417;-77
2022/12/28 12:28:47;;;;;;;1.30;0.67;;;8.00;99.90;;;;;;5024418;28;20879;-78
2022/12/28 12:31:26;;;;;;;1.97;0.93;;;8.00;99.90;;;;;;5022058;28;20436;-77
2022/12/28 12:33:57;;;;;;;1.40;0.77;;;7.80;99.90;;;;;;5025389;28;20442;-77
2022/12/28 12:36:23;;;;;;;1.93;0.93;;;7.70;99.90;;;;;;5024616;28;20428;-77
2022/12/28 12:38:48;;;;;;;5.07;1.00;;;7.70;99.90;;;;;;5031339;28;20743;-77
2022/12/28 12:41:42;;;;;;;2.50;0.80;;;7.70;99.90;;;;;;5028160;28;20706;-77
2022/12/28 12:44:38;;;;;;;5.20;1.20;;;7.70;99.90;;;;;;5001515;28;20179;-77
2022/12/28 12:47:18;;;;;;;1.40;0.70;;;7.70;99.90;;;;;;5011536;28;20424;-77
2022/12/28 12:50:17;;;;;;;1.87;0.77;;;7.80;99.90;;;;;;5027395;28;20414;-77
2022/12/28 12:52:51;;;;;;;2.60;0.90;;;7.90;99.90;;;;;;4997380;28;20441;-77
2022/12/28 12:55:47;;;;;;;8.50;1.83;;;8.00;99.90;;;;;;5021620;28;20503;-77
2022/12/28 12:58:22;;;;;;;3.97;1.50;;;8.00;99.90;;;;;;5004656;28;20417;-77
2022/12/28 13:01:21;;;;;;;1.73;1.03;;;8.00;99.90;;;;;;5028208;28;20464;-78
2022/12/28 13:03:49;;;;;;;2.80;1.00;;;8.00;99.90;;;;;;5024017;28;20422;-77
2022/12/28 13:06:22;;;;;;;2.13;0.87;;;7.90;99.90;;;;;;5030963;28;20424;-77
2022/12/28 13:08:53;;;;;;;1.40;0.67;;;7.90;99.90;;;;;;5018086;28;20421;-77
2022/12/28 13:11:20;;;;;;;1.77;0.60;;;7.90;99.90;;;;;;5013244;28;20444;-77
2022/12/28 13:13:48;;;;;;;3.00;0.80;;;7.90;99.90;;;;;;5023840;28;20448;-78
2022/12/28 13:16:20;;;;;;;1.37;0.80;;;7.90;99.90;;;;;;5010835;28;20433;-77
2022/12/28 13:18:58;;;;;;;2.03;1.00;;;7.80;99.90;;;;;;5026974;28;20421;-78
2022/12/28 13:21:26;;;;;;;1.20;0.60;;;7.90;99.90;;;;;;5017153;28;20500;-78
2022/12/28 13:23:52;;;;;;;4.30;1.07;;;7.80;99.90;;;;;;5015771;28;20430;-78
2022/12/28 13:26:25;;;;;;;1.80;0.90;;;7.80;99.90;;;;;;5031141;28;20428;-78
2022/12/28 13:29:02;;;;;;;2.37;1.13;;;7.80;99.90;;;;;;5017167;28;20193;-78
2022/12/28 13:31:39;;;;;;;1.83;0.80;;;7.70;99.90;;;;;;5029108;28;20436;-78
2022/12/28 13:34:16;;;;;;;1.90;1.07;;;7.70;99.90;;;;;;5031228;28;20431;-78
2022/12/28 13:36:55;;;;;;;1.70;0.80;;;7.60;99.90;;;;;;5030615;28;20813;-77
2022/12/28 13:39:21;;;;;;;1.73;0.83;;;7.60;99.90;;;;;;5016844;28;20524;-78
2022/12/28 13:41:50;;;;;;;1.87;0.90;;;7.60;99.90;;;;;;5032272;28;20471;-77